Chibougamau Airport (YMT/CYMT)

Map

Destinations

Information

Location
Chibougamau, Quebec, Canada
Local Time
22:35 / 10:35 pm
GMT Time
03:35 / 3:35 am
Gates
Unassigned
No FAA reported delays
METAR CYMT 260200Z AUTO 06004KT 9SM FEW200 SCT220 BKN240 14/06 A2983 RMK SLP109 DENSITY ALT 1400FT
TAF